Time;durP1;ratioP1;P1;durP2;ratioP2;P2;SDS_P1;SDS_P2;PMS_P1;PMS_P2;Temp;Humidity;BMP_temperature;BMP_pressure;BME280_temperature;BME280_humidity;BME280_pressure;Samples;Min_cycle;Max_cycle;Signal;HPM_P1;HPM_P2
2023/03/13 00:01:45;;;;;;;;;1.67;1.67;;;;;14.80;100.00;100235.97;5026405;28;45664;-85
2023/03/13 00:04:11;;;;;;;;;1.00;1.00;;;;;14.75;100.00;100219.34;5032588;28;45500;-85
2023/03/13 00:06:38;;;;;;;;;0.33;0.33;;;;;14.86;100.00;100250.72;5025583;28;45900;-85
2023/03/13 00:09:07;;;;;;;;;1.00;1.00;;;;;14.86;100.00;100242.44;5030892;28;45787;-86
2023/03/13 00:11:33;;;;;;;;;2.33;2.00;;;;;14.85;100.00;100233.31;5037140;28;45695;-84
2023/03/13 00:14:01;;;;;;;;;1.33;1.00;;;;;14.91;100.00;100237.84;5027402;28;45699;-86
2023/03/13 00:16:27;;;;;;;;;2.00;2.00;;;;;14.94;100.00;100242.00;5027605;28;46617;-86
2023/03/13 00:18:54;;;;;;;;;1.00;1.00;;;;;14.92;100.00;100238.66;5045184;28;45439;-85
2023/03/13 00:21:23;;;;;;;;;4.00;2.00;;;;;14.87;100.00;100225.63;5045687;28;45332;-86
2023/03/13 00:23:49;;;;;;;;;1.33;1.33;;;;;14.94;100.00;100242.84;5035369;28;45426;-87
2023/03/13 00:26:17;;;;;;;;;1.00;1.00;;;;;14.96;100.00;100223.28;5038008;28;45948;-86
2023/03/13 00:28:43;;;;;;;;;3.00;2.00;;;;;14.96;100.00;100224.09;5027553;28;47329;-86
2023/03/13 00:31:15;;;;;;;;;1.00;1.00;;;;;14.98;100.00;100212.81;5043063;28;45767;-85
2023/03/13 00:33:43;;;;;;;;;2.00;2.00;;;;;15.03;100.00;100212.03;5035163;28;45435;-86
2023/03/13 00:36:14;;;;;;;;;2.67;1.33;;;;;15.03;100.00;100212.91;5023305;28;45695;-84
2023/03/13 00:38:40;;;;;;;;;3.33;1.00;;;;;15.01;100.00;100215.06;5046336;28;45732;-86
2023/03/13 00:41:10;;;;;;;;;2.00;1.00;;;;;15.03;100.00;100212.91;5046530;28;45794;-87
2023/03/13 00:43:36;;;;;;;;;0.67;0.67;;;;;14.95;100.00;100200.34;5012129;28;45486;-84
2023/03/13 00:46:02;;;;;;;;;2.33;1.00;;;;;15.03;100.00;100214.81;5027296;28;46209;-86
2023/03/13 00:48:28;;;;;;;;;3.33;2.00;;;;;15.02;100.00;100211.22;5047022;28;44992;-87
2023/03/13 00:50:54;;;;;;;;;1.00;1.00;;;;;15.03;100.00;100203.75;5034180;28;45458;-87
2023/03/13 00:53:20;;;;;;;;;1.00;1.00;;;;;15.03;100.00;100201.00;5026246;28;44850;-87
2023/03/13 00:55:52;;;;;;;;;2.00;1.00;;;;;15.05;100.00;100201.59;5026009;28;45768;-85
2023/03/13 00:58:17;;;;;;;;;1.00;1.00;;;;;14.94;100.00;100193.16;5019371;28;47332;-85
2023/03/13 01:00:43;;;;;;;;;1.67;1.00;;;;;15.00;100.00;100197.66;5038569;28;45471;-84
2023/03/13 01:03:08;;;;;;;;;2.33;1.00;;;;;15.06;100.00;100204.13;5035099;28;45458;-85
2023/03/13 01:05:34;;;;;;;;;3.00;3.00;;;;;15.03;100.00;100199.09;5043150;28;45489;-84
2023/03/13 01:07:59;;;;;;;;;1.00;1.00;;;;;15.03;100.00;100189.97;5010055;28;47281;-88
2023/03/13 01:10:25;;;;;;;;;1.67;1.00;;;;;15.05;100.00;100187.78;5043623;28;44796;-84
2023/03/13 01:12:50;;;;;;;;;1.67;1.67;;;;;15.03;100.00;100173.38;5043635;28;45742;-85
2023/03/13 01:15:18;;;;;;;;;2.00;2.00;;;;;15.04;100.00;100177.84;5023069;28;45965;-85
2023/03/13 01:17:44;;;;;;;;;3.33;1.00;;;;;15.00;100.00;100164.53;5035598;28;46066;-86
2023/03/13 01:20:11;;;;;;;;;3.00;1.67;;;;;14.91;100.00;100138.44;5030426;28;45881;-85
2023/03/13 01:22:36;;;;;;;;;4.33;3.33;;;;;15.02;100.00;100156.00;5039289;28;45438;-86
2023/03/13 01:25:02;;;;;;;;;2.33;2.33;;;;;14.97;100.00;100148.47;5042963;28;45503;-85
2023/03/13 01:27:28;;;;;;;;;1.67;0.67;;;;;15.04;100.00;100144.69;5033763;28;45506;-84
2023/03/13 01:29:54;;;;;;;;;3.33;3.00;;;;;15.02;100.00;100128.38;5034248;28;45467;-84
2023/03/13 01:32:19;;;;;;;;;2.00;2.00;;;;;15.06;100.00;100125.94;5040992;28;45482;-84
2023/03/13 01:34:45;;;;;;;;;3.00;3.00;;;;;14.94;100.00;100109.47;5040633;28;45379;-85
2023/03/13 01:37:11;;;;;;;;;3.33;2.33;;;;;15.06;100.00;100131.47;5033481;28;45562;-83
2023/03/13 01:39:36;;;;;;;;;3.67;2.00;;;;;15.05;100.00;100149.13;4990197;28;45483;-85
2023/03/13 01:42:04;;;;;;;;;2.00;2.00;;;;;15.02;100.00;100144.13;5028632;28;45734;-84
2023/03/13 01:44:50;;;;;;;;;2.00;2.00;;;;;15.03;100.00;100149.38;5023158;28;45483;-85
2023/03/13 01:47:15;;;;;;;;;2.00;2.00;;;;;15.03;100.00;100151.28;5029608;28;46324;-85
2023/03/13 01:49:43;;;;;;;;;5.00;2.00;;;;;14.94;100.00;100123.28;5013249;28;44714;-87
2023/03/13 01:52:23;;;;;;;;;4.00;3.00;;;;;15.03;100.00;100126.44;5020699;28;45421;-85
2023/03/13 01:54:58;;;;;;;;;2.33;2.00;;;;;14.87;100.00;100081.22;5008537;28;45830;-87
2023/03/13 01:57:34;;;;;;;;;2.67;1.00;;;;;14.99;100.00;100102.09;5027704;28;45472;-87
2023/03/13 02:00:11;;;;;;;;;2.67;1.67;;;;;14.98;100.00;100085.78;5015442;28;45765;-84
2023/03/13 02:02:40;;;;;;;;;2.67;2.67;;;;;14.94;100.00;100092.91;5011078;28;45480;-85
2023/03/13 02:05:06;;;;;;;;;5.67;5.67;;;;;15.01;100.00;100099.09;5004220;28;45866;-85
2023/03/13 02:07:52;;;;;;;;;4.67;4.33;;;;;15.03;100.00;100104.34;4998192;28;46055;-85
2023/03/13 02:10:21;;;;;;;;;3.67;3.00;;;;;14.96;100.00;100083.28;5010103;28;45499;-85
2023/03/13 02:12:52;;;;;;;;;2.00;2.00;;;;;14.91;100.00;100072.19;5021333;28;44830;-87
2023/03/13 02:15:26;;;;;;;;;5.00;4.00;;;;;14.95;100.00;100080.78;5012980;28;44808;-83
2023/03/13 02:17:53;;;;;;;;;3.33;3.33;;;;;14.98;100.00;100081.13;5002113;28;46298;-82
2023/03/13 02:20:21;;;;;;;;;4.33;3.33;;;;;15.10;100.00;100096.72;5037064;28;45435;-82
2023/03/13 02:22:59;;;;;;;;;3.00;2.67;;;;;15.10;100.00;100085.69;5012007;28;45463;-84
2023/03/13 02:25:24;;;;;;;;;7.67;3.67;;;;;15.10;100.00;100082.91;5002920;28;45411;-84
2023/03/13 02:27:51;;;;;;;;;3.33;2.33;;;;;15.11;100.00;100093.69;5016223;28;45463;-82
2023/03/13 02:30:17;;;;;;;;;2.33;2.00;;;;;15.00;100.00;100062.34;5009349;28;45379;-83
2023/03/13 02:32:44;;;;;;;;;4.00;3.00;;;;;15.04;100.00;100064.59;5008860;28;45351;-83
2023/03/13 02:35:13;;;;;;;;;3.33;3.33;;;;;14.94;100.00;100059.75;5012564;28;45702;-82
2023/03/13 02:37:43;;;;;;;;;1.67;1.67;;;;;14.87;100.00;100048.91;5021940;28;45435;-84
2023/03/13 02:40:11;;;;;;;;;3.33;3.33;;;;;14.93;100.00;100069.16;5041594;28;45502;-84
2023/03/13 02:42:43;;;;;;;;;3.67;2.00;;;;;14.84;100.00;100052.19;5039192;28;45482;-84
2023/03/13 02:45:12;;;;;;;;;5.33;4.00;;;;;14.94;100.00;100066.16;5042391;28;45349;-83
2023/03/13 02:47:38;;;;;;;;;3.00;2.00;;;;;14.93;100.00;100064.47;5040897;28;45794;-84
2023/03/13 02:50:04;;;;;;;;;4.33;3.33;;;;;14.85;100.00;100039.22;5025943;28;44955;-81
2023/03/13 02:52:37;;;;;;;;;5.67;4.00;;;;;14.97;100.00;100046.31;5022164;28;44830;-83
2023/03/13 02:55:09;;;;;;;;;3.67;2.67;;;;;14.98;100.00;100053.50;5039978;28;45462;-83
2023/03/13 02:57:35;;;;;;;;;3.00;3.00;;;;;14.93;100.00;100034.09;5020861;28;46856;-83
2023/03/13 03:00:01;;;;;;;;;3.00;3.00;;;;;14.96;100.00;100036.34;5030618;28;45515;-82
2023/03/13 03:02:26;;;;;;;;;2.67;2.33;;;;;14.95;100.00;100023.63;5041261;28;45829;-83
2023/03/13 03:04:51;;;;;;;;;4.00;3.00;;;;;14.96;100.00;100019.78;5029600;28;45427;-82
2023/03/13 03:07:17;;;;;;;;;3.00;3.00;;;;;14.98;100.00;100020.38;5039275;28;46219;-83
2023/03/13 03:09:42;;;;;;;;;2.67;2.67;;;;;14.99;100.00;100030.31;5030233;28;45509;-83
2023/03/13 03:12:09;;;;;;;;;2.67;2.67;;;;;15.03;100.00;100035.31;5035635;28;45390;-82
2023/03/13 03:14:35;;;;;;;;;2.67;2.67;;;;;15.05;100.00;100033.16;5033037;28;45505;-84
2023/03/13 03:17:01;;;;;;;;;3.00;3.00;;;;;14.94;100.00;100013.69;5019520;28;46924;-84
2023/03/13 03:19:26;;;;;;;;;5.67;3.67;;;;;15.06;100.00;100034.81;5033009;28;45395;-84
2023/03/13 03:21:52;;;;;;;;;5.00;2.67;;;;;15.12;100.00;100042.06;5032197;28;45459;-83
2023/03/13 03:24:17;;;;;;;;;4.00;4.00;;;;;15.11;100.00;100029.34;5041150;28;45452;-85
2023/03/13 03:26:42;;;;;;;;;5.00;2.00;;;;;15.16;100.00;100035.78;5037566;28;45595;-84
2023/03/13 03:29:09;;;;;;;;;4.00;3.67;;;;;15.16;100.00;100038.56;5023238;28;45431;-84
2023/03/13 03:31:35;;;;;;;;;4.67;3.67;;;;;15.19;100.00;100031.66;5039378;28;45364;-84
2023/03/13 03:34:00;;;;;;;;;3.00;2.00;;;;;15.22;100.00;100033.91;5028794;28;45425;-83
2023/03/13 03:36:26;;;;;;;;;3.00;3.00;;;;;15.23;100.00;100041.09;5023321;28;45614;-83
2023/03/13 03:38:52;;;;;;;;;3.67;3.67;;;;;15.20;100.00;100025.06;5034915;28;45748;-84
2023/03/13 03:41:18;;;;;;;;;3.33;3.33;;;;;15.24;100.00;100026.22;5035186;28;45734;-84
2023/03/13 03:43:44;;;;;;;;;6.33;4.00;;;;;15.18;100.00;100021.72;5034995;28;45470;-86
2023/03/13 03:46:10;;;;;;;;;2.00;2.00;;;;;15.29;100.00;100039.25;5040993;28;46395;-83
2023/03/13 03:48:36;;;;;;;;;3.67;3.67;;;;;15.17;100.00;100020.88;5029028;28;45416;-83
2023/03/13 03:51:02;;;;;;;;;4.00;2.67;;;;;15.22;100.00;100022.03;5023596;28;45504;-85
2023/03/13 03:53:28;;;;;;;;;4.33;3.33;;;;;15.29;100.00;100037.31;5032378;28;46117;-84
2023/03/13 03:55:54;;;;;;;;;4.00;4.00;;;;;15.31;100.00;100023.25;5033146;28;45372;-86
2023/03/13 03:58:19;;;;;;;;;1.67;1.67;;;;;15.31;100.00;100020.47;5041039;28;45439;-84
2023/03/13 04:00:46;;;;;;;;;3.00;3.00;;;;;15.31;100.00;100026.84;5040339;28;45106;-84
2023/03/13 04:03:12;;;;;;;;;2.33;2.33;;;;;15.32;100.00;100022.16;5013051;28;45851;-83
2023/03/13 04:05:38;;;;;;;;;4.00;2.67;;;;;15.31;100.00;100024.09;5022474;28;45766;-82
2023/03/13 04:08:04;;;;;;;;;3.33;3.33;;;;;15.31;100.00;100020.47;5021762;28;45366;-85
2023/03/13 04:10:30;;;;;;;;;3.33;3.33;;;;;15.29;100.00;100030.97;5039538;28;45682;-85
2023/03/13 04:12:55;;;;;;;;;2.67;2.67;;;;;15.29;100.00;100033.72;5039281;28;45897;-83
2023/03/13 04:15:21;;;;;;;;;4.33;3.33;;;;;15.24;100.00;100020.69;5037913;28;45854;-85
2023/03/13 04:17:47;;;;;;;;;4.00;1.00;;;;;15.24;100.00;100019.84;5026496;28;45381;-84
2023/03/13 04:20:13;;;;;;;;;5.33;2.33;;;;;15.28;100.00;100021.81;5032194;28;45427;-83
2023/03/13 04:22:39;;;;;;;;;4.33;4.33;;;;;15.22;100.00;100017.31;5017083;28;46841;-84
2023/03/13 04:25:05;;;;;;;;;3.00;3.00;;;;;15.27;100.00;100025.69;5022038;28;45416;-83
2023/03/13 04:27:32;;;;;;;;;2.67;2.67;;;;;15.29;100.00;100028.19;5018873;28;45450;-83
2023/03/13 04:29:57;;;;;;;;;2.67;2.00;;;;;15.29;100.00;100022.66;5019194;28;45650;-84
2023/03/13 04:32:23;;;;;;;;;4.00;4.00;;;;;15.29;100.00;100020.72;5022388;28;45704;-85
2023/03/13 04:34:48;;;;;;;;;5.67;5.67;;;;;15.29;100.00;100029.03;5036859;28;45701;-84
2023/03/13 04:37:14;;;;;;;;;5.33;3.00;;;;;15.31;100.00;100021.34;5032277;28;44760;-84
2023/03/13 04:39:39;;;;;;;;;4.67;3.67;;;;;15.34;100.00;100036.53;5038703;28;45336;-84
2023/03/13 04:42:05;;;;;;;;;3.67;3.67;;;;;15.32;100.00;100022.97;5038185;28;45453;-84
2023/03/13 04:44:30;;;;;;;;;4.67;3.67;;;;;15.23;100.00;100012.66;5020676;28;46035;-84
2023/03/13 04:46:56;;;;;;;;;4.00;3.33;;;;;15.27;100.00;100017.41;5021286;28;45802;-85
2023/03/13 04:49:21;;;;;;;;;4.33;2.67;;;;;15.27;100.00;100020.16;5042074;28;45423;-88
2023/03/13 04:51:47;;;;;;;;;3.00;3.00;;;;;15.32;100.00;100038.72;5013575;28;45952;-86
2023/03/13 04:54:12;;;;;;;;;5.00;4.00;;;;;15.30;100.00;100039.00;5038306;28;45798;-86
2023/03/13 04:56:38;;;;;;;;;2.67;2.33;;;;;15.31;100.00;100032.38;5045470;28;45706;-84
2023/03/13 04:59:03;;;;;;;;;8.00;3.00;;;;;15.31;100.00;100029.63;5043447;28;45802;-83
2023/03/13 05:01:29;;;;;;;;;4.33;4.33;;;;;15.32;100.00;100017.44;5032060;28;45817;-84
2023/03/13 05:03:55;;;;;;;;;4.00;2.50;;;;;15.31;100.00;100024.09;5026624;28;48068;-83
2023/03/13 05:06:21;;;;;;;;;4.00;4.00;;;;;15.30;100.00;100025.19;5041164;28;45747;-84
2023/03/13 05:08:56;;;;;;;;;2.33;2.00;;;;;15.31;100.00;100023.25;5041598;28;45380;-84
2023/03/13 05:11:22;;;;;;;;;4.67;4.00;;;;;15.32;100.00;100020.22;5028534;28;45683;-84
2023/03/13 05:13:47;;;;;;;;;4.33;3.33;;;;;15.28;100.00;100021.00;5039685;28;47246;-83
2023/03/13 05:16:13;;;;;;;;;5.00;4.67;;;;;15.23;100.00;99991.38;5036422;28;45475;-85
2023/03/13 05:18:38;;;;;;;;;4.33;3.33;;;;;15.22;100.00;100000.75;5022209;28;45687;-83
2023/03/13 05:21:05;;;;;;;;;5.67;4.00;;;;;15.13;100.00;99986.56;5032543;28;45363;-83
2023/03/13 05:23:31;;;;;;;;;5.33;5.00;;;;;15.09;100.00;99996.47;5034409;28;46259;-83
2023/03/13 05:25:56;;;;;;;;;7.33;5.67;;;;;15.08;100.00;100002.25;5024841;28;45783;-82
2023/03/13 05:28:38;;;;;;;;;9.67;6.67;;;;;14.99;100.00;99999.94;5037223;28;46642;-86
2023/03/13 05:31:20;;;;;;;;;5.67;5.67;;;;;14.94;100.00;99988.84;5010583;28;45607;-85
2023/03/13 05:33:56;;;;;;;;;6.67;5.00;;;;;14.78;100.00;99978.69;5035009;28;45797;-84
2023/03/13 05:37:07;;;;;;;;;6.67;5.67;;;;;14.78;100.00;99984.22;5030406;28;45464;-88
2023/03/13 05:43:58;;;;;;;;;5.33;4.67;;;;;14.99;100.00;100008.22;4947046;28;45403;-84
2023/03/13 05:47:09;;;;;;;;;6.00;3.67;;;;;14.96;100.00;100003.22;4961738;28;45514;-88
2023/03/13 05:49:35;;;;;;;;;13.33;7.00;;;;;14.97;100.00;99993.84;4949106;28;45598;-83
2023/03/13 05:52:00;;;;;;;;;6.67;4.00;;;;;14.98;100.00;99997.44;4993326;28;45608;-85
2023/03/13 05:54:26;;;;;;;;;6.33;5.00;;;;;14.94;100.00;99980.56;5022057;28;46007;-84
2023/03/13 05:57:05;;;;;;;;;5.67;4.00;;;;;14.98;100.00;99989.16;5045879;28;46948;-86
2023/03/13 05:59:31;;;;;;;;;5.00;5.00;;;;;14.87;100.00;99960.56;5023716;28;46387;-87
2023/03/13 06:01:56;;;;;;;;;4.33;4.33;;;;;15.00;100.00;99973.16;5028728;28;45478;-88
2023/03/13 06:04:21;;;;;;;;;7.00;7.00;;;;;14.89;100.00;99960.31;5049025;28;45830;-88
2023/03/13 06:06:47;;;;;;;;;7.67;5.67;;;;;14.93;100.00;99967.81;5018356;28;47706;-86
2023/03/13 06:09:13;;;;;;;;;10.67;7.00;;;;;14.95;100.00;99968.41;5047219;28;45514;-83
2023/03/13 06:11:38;;;;;;;;;6.33;4.33;;;;;15.03;100.00;99975.41;5024208;28;45729;-85
2023/03/13 06:14:04;;;;;;;;;4.00;4.00;;;;;15.03;100.00;99969.03;5024952;28;45926;-82
2023/03/13 06:16:29;;;;;;;;;4.00;4.00;;;;;14.98;100.00;99967.06;5029641;28;47130;-81
2023/03/13 06:18:58;;;;;;;;;5.67;5.00;;;;;15.03;100.00;99964.38;5043464;28;45773;-86
2023/03/13 06:21:24;;;;;;;;;6.33;5.00;;;;;15.00;100.00;99951.91;5043296;28;45782;-85
2023/03/13 06:23:49;;;;;;;;;9.00;4.67;;;;;15.21;100.00;99970.63;5043019;28;45564;-84
2023/03/13 06:26:15;;;;;;;;;4.00;3.67;;;;;15.06;100.00;99939.00;5048291;28;45091;-84
2023/03/13 06:28:41;;;;;;;;;7.67;4.33;;;;;15.17;100.00;99938.00;5048902;28;45412;-86
2023/03/13 06:31:07;;;;;;;;;3.00;2.33;;;;;15.25;100.00;99955.22;5041136;28;45581;-83
2023/03/13 06:33:33;;;;;;;;;7.00;4.33;;;;;15.13;100.00;99924.97;5038228;28;45526;-84
2023/03/13 06:36:00;;;;;;;;;5.00;4.33;;;;;15.30;100.00;99942.31;5018627;28;47625;-84
2023/03/13 06:38:27;;;;;;;;;6.33;4.67;;;;;15.18;100.00;99917.59;5012089;28;45540;-83
2023/03/13 06:40:55;;;;;;;;;3.33;3.33;;;;;15.24;100.00;99918.47;5007451;28;45551;-80
2023/03/13 06:43:21;;;;;;;;;7.00;5.00;;;;;15.26;100.00;99923.75;5015724;28;46524;-83
2023/03/13 06:45:46;;;;;;;;;5.00;3.67;;;;;15.31;100.00;99938.44;5014664;28;46511;-84
2023/03/13 06:48:12;;;;;;;;;4.00;3.00;;;;;15.34;100.00;99935.16;5022425;28;45443;-85
2023/03/13 06:50:39;;;;;;;;;4.00;1.00;;;;;15.18;100.00;99909.31;5034398;28;45614;-84
2023/03/13 06:53:16;;;;;;;;;5.00;4.00;;;;;15.12;100.00;99898.44;5036129;28;45745;-82
2023/03/13 06:55:42;;;;;;;;;7.67;4.67;;;;;15.18;100.00;99905.72;5022626;28;47878;-80
2023/03/13 06:58:07;;;;;;;;;3.00;3.00;;;;;15.35;100.00;99934.06;5002475;28;45547;-82
2023/03/13 07:00:33;;;;;;;;;3.00;3.00;;;;;15.43;100.00;99946.56;5032764;28;46060;-80
2023/03/13 07:02:59;;;;;;;;;2.00;2.00;;;;;15.26;100.00;99896.94;5039072;28;45620;-81
2023/03/13 07:05:24;;;;;;;;;6.33;5.00;;;;;15.47;100.00;99927.53;5039208;28;46329;-80
2023/03/13 07:07:50;;;;;;;;;4.67;3.00;;;;;15.47;100.00;99916.50;5040599;28;45678;-81
2023/03/13 07:10:15;;;;;;;;;4.00;4.00;;;;;15.44;100.00;99914.25;5023952;28;45881;-81
2023/03/13 07:12:43;;;;;;;;;4.33;3.67;;;;;15.42;100.00;99900.69;5039492;28;44746;-81
2023/03/13 07:15:10;;;;;;;;;4.67;3.67;;;;;15.34;100.00;99879.06;5012307;28;45317;-82
2023/03/13 07:17:36;;;;;;;;;5.00;4.00;;;;;15.55;100.00;99921.53;5042380;28;45425;-81
2023/03/13 07:20:09;;;;;;;;;5.33;4.67;;;;;15.59;100.00;99914.38;5047455;28;45613;-83
2023/03/13 07:22:35;;;;;;;;;5.00;4.00;;;;;15.61;100.00;99914.94;5039433;28;45384;-82
2023/03/13 07:25:01;;;;;;;;;5.33;4.00;;;;;15.56;100.00;99914.09;5023771;28;46349;-80
2023/03/13 07:27:26;;;;;;;;;5.33;3.00;;;;;15.49;100.00;99887.50;5039905;28;45432;-83
2023/03/13 07:29:52;;;;;;;;;5.00;4.00;;;;;15.56;100.00;99901.09;5034490;28;45449;-82
2023/03/13 07:32:17;;;;;;;;;3.00;1.67;;;;;15.49;100.00;99873.69;5042477;28;45462;-80
2023/03/13 07:34:44;;;;;;;;;3.00;3.00;;;;;15.53;100.00;99866.50;5034688;28;45446;-81
2023/03/13 07:37:14;;;;;;;;;3.00;3.00;;;;;15.71;100.00;99894.84;5040313;28;45414;-83
2023/03/13 07:39:41;;;;;;;;;4.67;3.67;;;;;15.67;100.00;99883.50;5019858;28;45454;-81
2023/03/13 07:42:10;;;;;;;;;1.00;1.00;;;;;15.74;100.00;99894.34;5035742;28;45513;-81
2023/03/13 07:44:36;;;;;;;;;3.67;3.67;;;;;15.63;100.00;99865.78;5048072;28;46550;-82
2023/03/13 07:47:05;;;;;;;;;3.00;3.00;;;;;15.54;100.00;99859.91;5046866;28;45438;-83
2023/03/13 07:49:32;;;;;;;;;2.33;2.33;;;;;15.47;100.00;99845.47;5040774;28;45912;-84
2023/03/13 07:51:58;;;;;;;;;5.33;5.00;;;;;15.49;100.00;99845.19;5045392;28;45445;-85
2023/03/13 07:54:56;;;;;;;;;2.33;2.33;;;;;15.68;100.00;99874.09;5053172;28;45400;-91
2023/03/13 07:57:35;;;;;;;;;4.00;4.00;;;;;15.64;100.00;99866.59;5053285;28;44743;-90
2023/03/13 08:01:01;;;;;;;;;;;;;;;;;;;;;
2023/03/13 08:04:19;;;;;;;;;;;;;;;;;;;;;
2023/03/13 08:09:40;;;;;;;;;5.33;3.00;;;;;15.47;100.00;99872.28;5013169;28;45223;-82
2023/03/13 08:12:06;;;;;;;;;4.33;4.33;;;;;15.58;100.00;99882.31;5021130;28;45822;-80
2023/03/13 08:14:31;;;;;;;;;2.67;2.67;;;;;15.48;100.00;99851.84;5002479;28;46438;-83
2023/03/13 08:16:56;;;;;;;;;5.00;4.00;;;;;15.50;100.00;99855.16;5017656;28;46244;-83
2023/03/13 08:19:22;;;;;;;;;3.67;3.00;;;;;15.47;100.00;99856.53;5010881;28;45460;-84
2023/03/13 08:21:47;;;;;;;;;3.00;3.00;;;;;15.53;100.00;99858.22;5015360;28;45764;-83
2023/03/13 08:24:13;;;;;;;;;4.00;4.00;;;;;15.65;100.00;99860.00;5017412;28;45449;-83
2023/03/13 08:26:40;;;;;;;;;5.00;3.33;;;;;15.61;100.00;99859.66;5013824;28;45930;-82
2023/03/13 08:29:09;;;;;;;;;3.00;3.00;;;;;15.49;100.00;99823.09;5003824;28;45602;-81
2023/03/13 08:31:51;;;;;;;;;4.00;3.00;;;;;15.51;100.00;99848.56;5001177;28;45349;-82
2023/03/13 08:34:18;;;;;;;;;6.00;4.67;;;;;15.58;100.00;99856.59;5002574;28;47024;-83
2023/03/13 08:36:43;;;;;;;;;3.00;3.00;;;;;15.59;100.00;99828.72;5020313;28;46196;-82
2023/03/13 08:41:45;;;;;;;;;3.00;3.00;;;;;15.77;100.00;99849.56;4966585;26;45396;-83
2023/03/13 08:44:13;;;;;;;;;3.00;3.00;;;;;15.82;100.00;99849.66;5032330;28;45511;-82
2023/03/13 08:46:42;;;;;;;;;4.00;2.67;;;;;15.91;100.00;99846.38;5033052;28;46969;-87
2023/03/13 08:49:08;;;;;;;;;3.33;3.00;;;;;15.92;100.00;99837.81;5009196;28;44813;-83
2023/03/13 08:51:35;;;;;;;;;3.67;2.00;;;;;15.96;100.00;99816.81;4999781;28;45769;-87
2023/03/13 08:54:02;;;;;;;;;3.00;3.00;;;;;15.85;100.00;99806.78;5012742;28;46373;-85
2023/03/13 08:56:29;;;;;;;;;4.00;2.67;;;;;16.16;100.00;99821.63;5015340;28;46743;-84
2023/03/13 08:58:57;;;;;;;;;3.00;3.00;;;;;16.30;100.00;99832.19;5032562;28;45682;-84
2023/03/13 09:01:25;;;;;;;;;2.33;2.33;;;;;16.45;100.00;99823.97;5016140;28;44782;-85
2023/03/13 09:03:51;;;;;;;;;2.00;2.00;;;;;16.61;100.00;99780.56;5015788;28;45419;-84
2023/03/13 09:06:18;;;;;;;;;2.00;2.00;;;;;16.93;100.00;99796.16;5013676;28;47354;-83
2023/03/13 09:08:43;;;;;;;;;2.00;2.00;;;;;17.06;100.00;99809.47;5033094;28;44727;-84
2023/03/13 09:11:12;;;;;;;;;5.00;3.33;;;;;17.19;100.00;99807.28;5033500;28;45139;-84
2023/03/13 09:13:41;;;;;;;;;1.33;1.33;;;;;17.15;100.00;99800.63;5016028;28;46184;-83
2023/03/13 09:16:14;;;;;;;;;2.00;2.00;;;;;17.02;100.00;99780.69;5016081;28;46220;-86
2023/03/13 09:18:40;;;;;;;;;2.67;2.67;;;;;17.09;100.00;99766.53;5033884;28;45398;-84
2023/03/13 09:21:09;;;;;;;;;3.67;2.00;;;;;17.21;100.00;99792.03;5015968;28;44847;-85
2023/03/13 09:23:35;;;;;;;;;2.00;2.00;;;;;17.14;100.00;99779.56;5032171;28;45281;-87
2023/03/13 09:26:00;;;;;;;;;4.00;2.00;;;;;17.16;100.00;99772.66;5016199;28;47293;-85
2023/03/13 09:28:26;;;;;;;;;2.00;2.00;;;;;17.09;100.00;99772.91;5035165;28;45406;-83
2023/03/13 09:30:53;;;;;;;;;2.33;2.33;;;;;17.06;100.00;99778.19;5034206;28;45428;-83
2023/03/13 09:33:19;;;;;;;;;2.00;2.00;;;;;17.02;100.00;99777.91;5034879;28;44925;-84
2023/03/13 09:35:51;;;;;;;;;2.00;1.00;;;;;16.84;100.00;99768.16;5028250;28;45537;-86
2023/03/13 09:38:19;;;;;;;;;4.00;2.00;;;;;16.90;100.00;99785.63;5032880;28;45081;-87
2023/03/13 09:40:46;;;;;;;;;2.00;2.00;;;;;16.76;100.00;99769.50;5026598;28;45442;-84
2023/03/13 09:43:48;;;;;;;;;3.00;3.00;;;;;16.79;100.00;99775.63;4995677;28;46806;-84
2023/03/13 09:46:32;;;;;;;;;4.67;4.00;;;;;16.69;100.00;99760.66;4985658;28;45403;-84
2023/03/13 09:49:01;;;;;;;;;3.33;2.33;;;;;16.67;100.00;99773.94;5007280;28;45844;-84
2023/03/13 09:51:33;;;;;;;;;2.00;2.00;;;;;16.57;100.00;99757.28;5009514;28;45858;-85
2023/03/13 09:54:48;;;;;;;;;5.00;3.33;;;;;16.51;100.00;99766.69;4996030;28;46319;-81
2023/03/13 09:57:22;;;;;;;;;4.67;2.67;;;;;16.46;100.00;99748.13;4994247;28;47257;-86
2023/03/13 10:00:00;;;;;;;;;2.00;2.00;;;;;16.35;100.00;99727.91;5001934;28;45624;-85
2023/03/13 10:02:34;;;;;;;;;3.33;3.33;;;;;16.46;100.00;99741.78;4982582;28;44825;-84
2023/03/13 10:05:19;;;;;;;;;2.00;2.00;;;;;16.49;100.00;99732.94;5010945;28;44862;-84
2023/03/13 10:07:44;;;;;;;;;3.67;2.33;;;;;16.42;100.00;99722.09;5011444;28;44986;-84
2023/03/13 10:10:17;;;;;;;;;3.33;2.00;;;;;16.50;100.00;99745.69;4999648;28;45705;-85
2023/03/13 10:12:48;;;;;;;;;3.33;2.00;;;;;16.56;100.00;99736.28;5010229;28;44764;-84
2023/03/13 10:15:39;;;;;;;;;2.33;2.00;;;;;16.58;100.00;99736.81;4982456;28;46367;-85
2023/03/13 10:18:20;;;;;;;;;2.00;2.00;;;;;16.65;100.00;99729.09;5014737;28;45395;-84
2023/03/13 10:20:52;;;;;;;;;4.67;3.00;;;;;16.65;100.00;99711.66;4999170;28;45137;-85
2023/03/13 10:23:31;;;;;;;;;1.67;1.67;;;;;16.78;100.00;99716.63;5014368;28;45359;-85
2023/03/13 10:25:57;;;;;;;;;2.00;2.00;;;;;16.89;100.00;99715.56;5008774;28;45307;-84
2023/03/13 10:28:25;;;;;;;;;2.00;2.00;;;;;16.91;100.00;99715.28;5017929;28;45383;-84
2023/03/13 10:31:07;;;;;;;;;0.00;0.00;;;;;16.99;100.00;99706.44;5011616;28;45225;-86
2023/03/13 10:33:37;;;;;;;;;2.00;2.00;;;;;17.26;100.00;99694.22;5011775;28;45490;-84
2023/03/13 10:36:22;;;;;;;;;2.00;1.00;;;;;17.38;100.00;99688.38;5011577;28;45449;-82
2023/03/13 10:38:48;;;;;;;;;1.67;1.33;;;;;17.33;100.00;99697.53;5016830;28;45543;-84
2023/03/13 10:41:29;;;;;;;;;2.00;2.00;;;;;17.28;100.00;99692.81;5026530;28;45911;-81
2023/03/13 10:44:02;;;;;;;;;2.00;2.00;;;;;17.79;100.00;99678.00;5042671;28;45323;-83
2023/03/13 10:46:31;;;;;;;;;2.67;2.00;;;;;19.15;100.00;99683.28;5021985;28;45690;-85
2023/03/13 10:49:00;;;;;;;;;2.33;2.00;;;;;20.57;100.00;99683.78;5036834;28;45363;-86
2023/03/13 10:51:38;;;;;;;;;1.00;1.00;;;;;21.61;100.00;99650.25;5036739;28;45259;-87
2023/03/13 10:54:35;;;;;;;;;1.33;1.00;;;;;22.61;100.00;99648.63;5016395;28;45626;-86
2023/03/13 10:57:31;;;;;;;;;2.50;2.25;;;;;23.20;100.00;99640.16;5012911;28;46038;-86
2023/03/13 10:59:58;;;;;;;;;1.25;1.00;;;;;23.67;100.00;99662.13;5004170;28;46083;-86
2023/03/13 11:02:34;;;;;;;;;2.50;1.50;;;;;23.97;100.00;99631.59;5012068;28;45342;-87
2023/03/13 11:05:00;;;;;;;;;2.00;1.00;;;;;23.82;100.00;99646.00;5029898;28;45423;-85
2023/03/13 11:07:36;;;;;;;;;1.00;1.00;;;;;23.92;100.00;99651.34;5028372;28;45454;-84
2023/03/13 11:10:29;;;;;;;;;1.00;1.00;;;;;23.91;100.00;99655.31;5035326;28;45261;-86
2023/03/13 11:12:56;;;;;;;;;2.25;2.00;;;;;23.82;100.00;99634.81;5022534;28;44753;-85
2023/03/13 11:15:22;;;;;;;;;1.00;1.00;;;;;23.80;100.00;99649.97;5006597;28;45527;-85
2023/03/13 11:17:59;;;;;;;;;2.25;1.00;;;;;23.49;100.00;99644.44;4996810;28;45658;-84
2023/03/13 11:20:34;;;;;;;;;2.00;1.50;;;;;23.07;100.00;99639.09;5028605;28;46658;-83
2023/03/13 11:23:20;;;;;;;;;1.25;1.00;;;;;23.10;100.00;99660.03;5029515;28;45508;-83
2023/03/13 11:26:09;;;;;;;;;1.00;1.00;;;;;22.98;100.00;99646.59;5012830;28;45462;-86
2023/03/13 11:29:20;;;;;;;;;1.00;1.00;;;;;22.91;100.00;99652.63;5013482;28;46730;-86
2023/03/13 11:31:55;;;;;;;;;3.00;3.00;;;;;22.71;100.00;99653.13;5010665;28;47599;-85
2023/03/13 11:34:42;;;;;;;;;1.00;1.00;;;;;22.40;100.00;99648.28;5027143;28;44797;-86
2023/03/13 11:37:20;;;;;;;;;4.25;1.00;;;;;22.24;100.00;99649.75;5025603;28;45405;-85
2023/03/13 11:39:45;;;;;;;;;1.50;1.50;;;;;21.92;100.00;99643.22;5005591;28;45459;-85
2023/03/13 11:42:30;;;;;;;;;2.75;1.00;;;;;21.62;100.00;99656.66;5007100;28;47160;-80
2023/03/13 11:45:33;;;;;;;;;2.50;1.00;;;;;21.42;100.00;99650.31;5012480;28;45131;-83
2023/03/13 11:48:46;;;;;;;;;0.50;0.00;;;;;21.14;100.00;99643.88;5026288;28;45328;-87